createdAt,value
2018-12-16T00:04:07.437Z,-0.20
2018-12-16T00:09:27.236Z,-0.20
2018-12-16T00:12:00.677Z,-0.20
2018-12-16T00:14:30.818Z,-0.30
2018-12-16T00:25:38.567Z,-0.30
2018-12-16T00:28:12.343Z,-0.20
2018-12-16T00:30:49.242Z,-0.20
2018-12-16T00:33:17.580Z,-0.20
2018-12-16T00:35:44.777Z,-0.20
2018-12-16T00:38:19.893Z,-0.20
2018-12-16T00:40:47.089Z,-0.30
2018-12-16T00:49:06.941Z,-0.40
2018-12-16T00:54:24.773Z,-0.40
2018-12-16T00:56:55.781Z,-0.40
2018-12-16T01:02:21.145Z,-0.50
2018-12-16T01:04:49.430Z,-0.50
2018-12-16T01:07:22.990Z,-0.60
2018-12-16T01:09:50.238Z,-0.60
2018-12-16T01:12:17.450Z,-0.60
2018-12-16T01:14:51.748Z,-0.50
2018-12-16T01:17:25.111Z,-0.50
2018-12-16T01:22:43.502Z,-0.50
2018-12-16T01:25:17.871Z,-0.50
2018-12-16T01:27:57.723Z,-0.50
2018-12-16T01:30:24.925Z,-0.50
2018-12-16T01:35:44.058Z,-0.50
2018-12-16T01:38:28.174Z,-0.50
2018-12-16T01:40:55.831Z,-0.50
2018-12-16T01:43:25.211Z,-0.40
2018-12-16T01:45:58.818Z,-0.40
2018-12-16T01:48:26.415Z,-0.40
2018-12-16T01:50:53.594Z,-0.40
2018-12-16T01:53:31.186Z,-0.40
2018-12-16T01:56:04.056Z,-0.40
2018-12-16T01:58:34.939Z,-0.40
2018-12-16T02:01:06.451Z,-0.40
2018-12-16T02:03:33.706Z,-0.40
2018-12-16T02:06:04.541Z,-0.40
2018-12-16T02:11:29.133Z,-0.30
2018-12-16T02:14:02.452Z,-0.40
2018-12-16T02:16:29.662Z,-0.40
2018-12-16T02:19:03.960Z,-0.40
2018-12-16T02:21:43.671Z,-0.40
2018-12-16T02:24:10.878Z,-0.40
2018-12-16T02:26:41.219Z,-0.40
2018-12-16T02:40:35.246Z,-0.50
2018-12-16T02:43:02.455Z,-0.50
2018-12-16T02:45:35.718Z,-0.50
2018-12-16T02:54:04.419Z,-0.40
2018-12-16T02:56:35.219Z,-0.40
2018-12-16T02:59:05.762Z,-0.40
2018-12-16T03:01:44.958Z,-0.40
2018-12-16T03:07:09.269Z,-0.40
2018-12-16T03:09:55.099Z,-0.40
2018-12-16T03:12:34.609Z,-0.40
2018-12-16T03:15:07.795Z,-0.40
2018-12-16T03:17:44.938Z,-0.50
2018-12-16T03:20:12.309Z,-0.50
2018-12-16T03:22:43.532Z,-0.50
2018-12-16T03:25:13.969Z,-0.50
2018-12-16T03:27:41.251Z,-0.50
2018-12-16T03:32:58.192Z,-0.40
2018-12-16T03:35:25.390Z,-0.40
2018-12-16T03:37:56.090Z,-0.40
2018-12-16T03:43:12.908Z,-0.50
2018-12-16T03:45:45.800Z,-0.50
2018-12-16T03:51:12.570Z,-0.60
2018-12-16T03:53:39.741Z,-0.60
2018-12-16T03:56:19.466Z,-0.50
2018-12-16T03:58:52.496Z,-0.50
2018-12-16T04:01:25.894Z,-0.50
2018-12-16T04:03:53.077Z,-0.50
2018-12-16T04:06:25.142Z,-0.40
2018-12-16T04:08:52.304Z,-0.40
2018-12-16T04:14:11.467Z,-0.30
2018-12-16T04:16:38.798Z,-0.30
2018-12-16T04:21:59.714Z,-0.30
2018-12-16T04:29:49.272Z,-0.30
2018-12-16T04:32:22.699Z,-0.30
2018-12-16T04:34:55.761Z,-0.30
2018-12-16T04:37:22.936Z,-0.30
2018-12-16T04:39:57.529Z,-0.30
2018-12-16T04:42:24.717Z,-0.30
2018-12-16T04:44:52.917Z,-0.30
2018-12-16T04:47:20.112Z,-0.30
2018-12-16T04:52:39.835Z,-0.40
2018-12-16T04:55:19.957Z,-0.40
2018-12-16T04:57:47.158Z,-0.40
2018-12-16T05:00:32.006Z,-0.40
2018-12-16T05:02:59.184Z,-0.30
2018-12-16T05:05:29.882Z,-0.30
2018-12-16T05:10:46.476Z,-0.20
2018-12-16T05:16:03.785Z,-0.20
2018-12-16T05:18:45.148Z,-0.20
2018-12-16T05:21:12.765Z,-0.10
2018-12-16T05:23:48.253Z,-0.20
2018-12-16T05:26:18.713Z,-0.20
2018-12-16T05:31:11.688Z,-0.20
2018-12-16T05:33:42.282Z,-0.20
2018-12-16T05:41:42.677Z,-0.20
2018-12-16T05:44:09.873Z,-0.20
2018-12-16T05:52:19.357Z,-0.10
2018-12-16T05:54:46.531Z,-0.20
2018-12-16T05:57:20.064Z,-0.10
2018-12-16T05:59:47.238Z,-0.10
2018-12-16T06:02:18.270Z,-0.10
2018-12-16T06:05:02.204Z,-0.10
2018-12-16T06:07:30.209Z,-0.20
2018-12-16T06:10:15.251Z,-0.20
2018-12-16T06:12:42.428Z,-0.20
2018-12-16T06:15:17.621Z,-0.10
2018-12-16T06:17:44.811Z,-0.20
2018-12-16T06:22:59.313Z,-0.20
2018-12-16T06:25:26.662Z,-0.20
2018-12-16T06:30:39.943Z,-0.20
2018-12-16T06:38:53.494Z,-0.20
2018-12-16T06:41:32.014Z,-0.30
2018-12-16T06:43:59.204Z,-0.30
2018-12-16T06:46:26.448Z,-0.20
2018-12-16T06:51:43.592Z,-0.30
2018-12-16T06:54:29.081Z,-0.20
2018-12-16T06:59:46.169Z,-0.20
2018-12-16T07:02:32.614Z,-0.20
2018-12-16T07:04:59.861Z,-0.20
2018-12-16T07:10:17.385Z,-0.20
2018-12-16T07:15:41.932Z,-0.10
2018-12-16T07:18:09.132Z,-0.10
2018-12-16T07:20:48.448Z,-0.20
2018-12-16T07:23:15.658Z,-0.10
2018-12-16T07:31:15.702Z,-0.20
2018-12-16T07:33:54.684Z,-0.10
2018-12-16T07:36:21.872Z,-0.10
2018-12-16T07:39:08.162Z,-0.10
2018-12-16T07:41:35.364Z,-0.10
2018-12-16T07:46:52.459Z,-0.10
2018-12-16T07:52:09.645Z,-0.10
2018-12-16T07:57:26.575Z,0.00
2018-12-16T07:59:53.805Z,0.00
2018-12-16T08:02:21.004Z,0.00
2018-12-16T08:04:51.926Z,0.00
2018-12-16T08:07:19.147Z,0.10
2018-12-16T08:12:38.831Z,0.10
2018-12-16T08:15:06.324Z,0.10
2018-12-16T08:17:35.508Z,0.10
2018-12-16T08:20:02.718Z,0.10
2018-12-16T08:22:40.825Z,0.10
2018-12-16T08:25:08.062Z,0.20
2018-12-16T08:30:21.442Z,0.20
2018-12-16T08:32:48.732Z,0.20
2018-12-16T08:35:15.963Z,0.20
2018-12-16T08:37:43.120Z,0.20
2018-12-16T08:40:10.415Z,0.20
2018-12-16T08:42:39.576Z,0.30
2018-12-16T08:45:06.976Z,0.30
2018-12-16T08:47:36.130Z,0.30
2018-12-16T08:50:04.019Z,0.30
2018-12-16T08:52:35.862Z,0.30
2018-12-16T08:55:03.267Z,0.30
2018-12-16T08:57:35.509Z,0.30
2018-12-16T09:00:05.520Z,0.30
2018-12-16T09:02:34.041Z,0.30
2018-12-16T09:05:02.808Z,0.30
2018-12-16T09:07:37.078Z,0.30
2018-12-16T09:09:59.588Z,0.30
2018-12-16T09:12:27.195Z,0.40
2018-12-16T09:14:54.763Z,0.40
2018-12-16T09:17:22.189Z,0.40
2018-12-16T09:19:49.390Z,0.40
2018-12-16T09:22:16.681Z,0.40
2018-12-16T09:24:43.872Z,0.50
2018-12-16T09:27:12.162Z,0.50
2018-12-16T09:29:39.993Z,0.40
2018-12-16T09:32:07.189Z,0.50
2018-12-16T09:34:35.596Z,0.40
2018-12-16T09:37:02.793Z,0.50
2018-12-16T09:39:31.063Z,0.50
2018-12-16T09:41:58.244Z,0.50
2018-12-16T09:44:25.580Z,0.50
2018-12-16T09:46:56.627Z,0.50
2018-12-16T09:49:24.952Z,0.50
2018-12-16T09:51:55.620Z,0.50
2018-12-16T09:54:29.984Z,0.50
2018-12-16T09:56:57.568Z,0.50
2018-12-16T09:59:28.873Z,0.50
2018-12-16T10:01:58.341Z,0.50
2018-12-16T10:04:27.560Z,0.50
2018-12-16T10:06:54.739Z,0.50
2018-12-16T10:09:29.569Z,0.40
2018-12-16T10:11:57.237Z,0.40
2018-12-16T10:14:24.502Z,0.40
2018-12-16T10:16:53.279Z,0.40
2018-12-16T10:19:21.608Z,0.40
2018-12-16T10:21:48.787Z,0.50
2018-12-16T10:24:16.120Z,0.50
2018-12-16T10:35:02.616Z,0.70
2018-12-16T10:37:29.933Z,0.60
2018-12-16T10:39:57.152Z,0.60
2018-12-16T10:42:24.417Z,0.60
2018-12-16T10:44:51.584Z,0.50
2018-12-16T10:47:19.045Z,0.50
2018-12-16T10:49:49.543Z,0.40
2018-12-16T10:55:12.818Z,0.30
2018-12-16T10:57:40.150Z,0.20
2018-12-16T11:00:13.116Z,0.20
2018-12-16T11:02:40.359Z,0.20
2018-12-16T11:05:12.495Z,0.10
2018-12-16T11:07:39.711Z,0.10
2018-12-16T11:10:07.221Z,0.10
2018-12-16T11:12:35.328Z,0.10
2018-12-16T11:15:02.718Z,0.00
2018-12-16T11:17:29.884Z,0.00
2018-12-16T11:20:02.982Z,0.00
2018-12-16T11:22:30.184Z,0.00
2018-12-16T11:25:05.439Z,-0.10
2018-12-16T11:27:27.753Z,-0.10
2018-12-16T11:29:55.071Z,-0.10
2018-12-16T11:32:22.364Z,-0.10
2018-12-16T11:34:49.555Z,-0.10
2018-12-16T11:37:16.767Z,-0.10
2018-12-16T11:39:43.958Z,0.00
2018-12-16T11:42:11.209Z,0.00
2018-12-16T11:44:38.411Z,0.00
2018-12-16T11:47:05.922Z,0.10
2018-12-16T11:49:33.115Z,0.20
2018-12-16T11:52:01.557Z,0.30
2018-12-16T11:54:28.730Z,0.30
2018-12-16T11:56:56.949Z,0.30
2018-12-16T11:59:24.149Z,0.40
2018-12-16T12:01:51.600Z,0.40
2018-12-16T12:04:18.859Z,0.40
2018-12-16T12:06:48.185Z,0.40
2018-12-16T12:09:15.997Z,0.40
2018-12-16T12:11:43.400Z,0.50
2018-12-16T12:14:11.559Z,0.50
2018-12-16T12:16:38.991Z,0.50
2018-12-16T12:19:06.280Z,0.50
2018-12-16T12:21:36.772Z,0.50
2018-12-16T12:24:03.957Z,0.50
2018-12-16T12:29:12.842Z,0.40
2018-12-16T12:31:40.284Z,0.50
2018-12-16T12:34:07.681Z,0.50
2018-12-16T12:36:37.375Z,0.50
2018-12-16T12:39:05.575Z,0.60
2018-12-16T12:41:33.081Z,0.60
2018-12-16T12:44:00.630Z,0.60
2018-12-16T12:46:28.105Z,0.60
2018-12-16T12:48:56.652Z,0.60
2018-12-16T12:51:25.138Z,0.60
2018-12-16T12:53:52.314Z,0.60
2018-12-16T12:56:20.271Z,0.50
2018-12-16T13:01:26.093Z,0.40
2018-12-16T13:03:53.290Z,0.40
2018-12-16T13:06:22.742Z,0.40
2018-12-16T13:08:49.972Z,0.30
2018-12-16T13:11:17.256Z,0.30
2018-12-16T13:13:44.434Z,0.30
2018-12-16T13:16:11.697Z,0.30
2018-12-16T13:18:39.109Z,0.30
2018-12-16T13:21:06.408Z,0.30
2018-12-16T13:23:33.609Z,0.30
2018-12-16T13:26:01.465Z,0.30
2018-12-16T13:28:28.791Z,0.30
2018-12-16T13:30:56.027Z,0.30
2018-12-16T13:33:23.222Z,0.30
2018-12-16T13:35:50.479Z,0.30
2018-12-16T13:38:17.928Z,0.30
2018-12-16T13:40:45.175Z,0.30
2018-12-16T13:43:13.134Z,0.30
2018-12-16T13:45:40.923Z,0.20
2018-12-16T13:48:08.261Z,0.20
2018-12-16T13:50:35.939Z,0.30
2018-12-16T13:53:03.136Z,0.30
2018-12-16T13:55:33.099Z,0.20
2018-12-16T13:58:00.631Z,0.20
2018-12-16T14:00:28.135Z,0.20
2018-12-16T14:02:55.404Z,0.30
2018-12-16T14:05:22.890Z,0.30
2018-12-16T14:07:53.998Z,0.30
2018-12-16T14:10:22.248Z,0.30
2018-12-16T14:12:50.956Z,0.30
2018-12-16T14:15:21.136Z,0.40
2018-12-16T14:17:52.629Z,0.40
2018-12-16T14:20:20.115Z,0.40
2018-12-16T14:22:47.887Z,0.40
2018-12-16T14:25:15.589Z,0.30
2018-12-16T14:27:42.881Z,0.30
2018-12-16T14:30:11.566Z,0.30
2018-12-16T14:35:35.362Z,0.30
2018-12-16T14:38:04.868Z,0.20
2018-12-16T14:40:32.455Z,0.20
2018-12-16T14:42:59.699Z,0.20
2018-12-16T14:45:27.030Z,0.20
2018-12-16T14:47:54.814Z,0.10
2018-12-16T14:50:22.229Z,0.10
2018-12-16T14:52:51.447Z,0.10
2018-12-16T14:55:18.720Z,0.10
2018-12-16T14:57:47.307Z,0.10
2018-12-16T15:00:15.288Z,0.10
2018-12-16T15:02:42.824Z,0.10
2018-12-16T15:05:10.264Z,0.00
2018-12-16T15:07:37.553Z,0.00
2018-12-16T15:10:05.892Z,0.10
2018-12-16T15:12:33.102Z,0.10
2018-12-16T15:15:00.372Z,0.10
2018-12-16T15:17:28.097Z,0.10
2018-12-16T15:19:55.732Z,0.10
2018-12-16T15:30:46.534Z,0.10
2018-12-16T15:33:14.098Z,0.10
2018-12-16T15:35:41.358Z,0.10
2018-12-16T15:38:08.727Z,0.10
2018-12-16T15:40:35.928Z,0.10
2018-12-16T15:43:03.087Z,0.10
2018-12-16T15:45:30.375Z,0.10
2018-12-16T15:47:57.578Z,0.10
2018-12-16T15:50:31.733Z,0.10
2018-12-16T15:52:59.272Z,0.10
2018-12-16T15:55:26.843Z,0.10
2018-12-16T15:57:54.276Z,0.10
2018-12-16T16:00:23.572Z,0.10
2018-12-16T16:02:51.081Z,0.10
2018-12-16T16:05:18.272Z,0.10
2018-12-16T16:07:45.934Z,0.10
2018-12-16T16:10:13.211Z,0.10
2018-12-16T16:12:40.432Z,0.10
2018-12-16T16:15:07.802Z,0.10
2018-12-16T16:17:35.471Z,0.10
2018-12-16T16:20:03.309Z,0.10
2018-12-16T16:22:32.249Z,0.10
2018-12-16T16:24:59.485Z,0.20
2018-12-16T16:27:29.058Z,0.20
2018-12-16T16:29:56.678Z,0.20
2018-12-16T16:32:24.423Z,0.20
2018-12-16T16:34:51.670Z,0.20
2018-12-16T16:37:22.365Z,0.20
2018-12-16T16:39:49.690Z,0.20
2018-12-16T16:42:17.896Z,0.20
2018-12-16T16:44:45.302Z,0.20
2018-12-16T16:47:12.677Z,0.10
2018-12-16T16:49:40.671Z,0.10
2018-12-16T16:52:10.196Z,0.20
2018-12-16T16:54:37.550Z,0.20
2018-12-16T16:57:04.926Z,0.20
2018-12-16T16:59:32.109Z,0.20
2018-12-16T17:01:59.452Z,0.20
2018-12-16T17:04:27.211Z,0.20
2018-12-16T17:06:54.875Z,0.20
2018-12-16T17:09:23.738Z,0.20
2018-12-16T17:11:50.923Z,0.20
2018-12-16T17:14:19.802Z,0.20
2018-12-16T17:16:47.028Z,0.10
2018-12-16T17:19:14.398Z,0.20
2018-12-16T17:21:42.282Z,0.20
2018-12-16T17:24:10.768Z,0.20
2018-12-16T17:26:38.241Z,0.30
2018-12-16T17:29:05.603Z,0.30
2018-12-16T17:31:32.824Z,0.30
2018-12-16T17:34:01.284Z,0.20
2018-12-16T17:36:28.691Z,0.30
2018-12-16T17:38:56.155Z,0.30
2018-12-16T17:41:23.540Z,0.30
2018-12-16T17:43:50.797Z,0.30
2018-12-16T17:46:18.020Z,0.30
2018-12-16T17:48:45.204Z,0.30
2018-12-16T17:51:12.431Z,0.30
2018-12-16T17:53:39.626Z,0.30
2018-12-16T17:56:07.352Z,0.30
2018-12-16T17:58:34.637Z,0.30
2018-12-16T18:01:02.957Z,0.30
2018-12-16T18:03:30.164Z,0.30
2018-12-16T18:05:57.390Z,0.30
2018-12-16T18:08:24.921Z,0.30
2018-12-16T18:10:53.092Z,0.30
2018-12-16T18:13:20.257Z,0.30
2018-12-16T18:15:47.491Z,0.30
2018-12-16T18:18:14.819Z,0.30
2018-12-16T18:20:42.020Z,0.30
2018-12-16T18:23:09.185Z,0.40
2018-12-16T18:25:37.403Z,0.40
2018-12-16T18:28:04.563Z,0.30
2018-12-16T18:30:31.771Z,0.40
2018-12-16T18:32:59.224Z,0.40
2018-12-16T18:35:26.461Z,0.40
2018-12-16T18:37:53.643Z,0.40
2018-12-16T18:40:23.927Z,0.40
2018-12-16T18:42:51.113Z,0.40
2018-12-16T18:45:18.460Z,0.40
2018-12-16T18:47:45.662Z,0.40
2018-12-16T18:50:15.911Z,0.40
2018-12-16T18:52:43.089Z,0.50
2018-12-16T18:55:10.408Z,0.50
2018-12-16T18:57:37.578Z,0.40
2018-12-16T19:00:05.753Z,0.40
2018-12-16T19:02:32.939Z,0.40
2018-12-16T19:05:00.238Z,0.40
2018-12-16T19:07:27.435Z,0.40
2018-12-16T19:09:54.736Z,0.40
2018-12-16T19:12:21.954Z,0.40
2018-12-16T19:14:49.637Z,0.50
2018-12-16T19:17:16.869Z,0.50
2018-12-16T19:19:47.840Z,0.50
2018-12-16T19:22:15.277Z,0.60
2018-12-16T19:24:42.569Z,0.50
2018-12-16T19:27:09.779Z,0.60
2018-12-16T19:29:37.079Z,0.60
2018-12-16T19:32:04.263Z,0.60
2018-12-16T19:34:32.584Z,0.60
2018-12-16T19:36:59.793Z,0.60
2018-12-16T19:39:27.097Z,0.60
2018-12-16T19:41:54.347Z,0.70
2018-12-16T19:44:24.871Z,0.70
2018-12-16T19:46:52.055Z,0.70
2018-12-16T19:49:19.655Z,0.70
2018-12-16T19:51:46.842Z,0.70
2018-12-16T19:54:14.312Z,0.70
2018-12-16T19:56:42.072Z,0.80
2018-12-16T19:59:09.350Z,0.80
2018-12-16T20:01:36.615Z,0.80
2018-12-16T20:04:09.522Z,0.80
2018-12-16T20:06:42.383Z,0.80
2018-12-16T20:09:09.572Z,0.80
2018-12-16T20:11:36.756Z,0.80
2018-12-16T20:14:04.214Z,0.80
2018-12-16T20:16:31.457Z,0.80
2018-12-16T20:18:58.623Z,0.80
2018-12-16T20:21:25.873Z,0.80
2018-12-16T20:23:53.076Z,0.80
2018-12-16T20:26:21.298Z,0.80
2018-12-16T20:28:48.460Z,0.80
2018-12-16T20:31:15.704Z,0.80
2018-12-16T20:33:42.871Z,0.80
2018-12-16T20:36:10.107Z,0.80
2018-12-16T20:38:37.298Z,0.80
2018-12-16T20:41:04.523Z,0.90
2018-12-16T20:43:31.702Z,0.90
2018-12-16T20:45:59.029Z,0.90
2018-12-16T20:48:26.218Z,0.90
2018-12-16T20:50:59.163Z,0.90
2018-12-16T20:53:26.448Z,1.10
2018-12-16T20:55:53.645Z,1.10
2018-12-16T20:58:20.812Z,1.20
2018-12-16T21:00:48.065Z,1.20
2018-12-16T21:03:15.266Z,1.20
2018-12-16T21:05:47.332Z,1.20
2018-12-16T21:08:14.787Z,1.20
2018-12-16T21:10:45.685Z,1.20
2018-12-16T21:13:18.721Z,1.20
2018-12-16T21:15:51.561Z,1.20
2018-12-16T21:18:22.563Z,1.20
2018-12-16T21:20:50.397Z,1.20
2018-12-16T21:23:24.457Z,1.20
2018-12-16T21:25:52.754Z,1.20
2018-12-16T21:28:20.045Z,1.20
2018-12-16T21:30:47.267Z,1.20
2018-12-16T21:33:14.499Z,1.20
2018-12-16T21:35:41.690Z,1.20
2018-12-16T21:38:08.884Z,1.30
2018-12-16T21:40:36.102Z,1.30
2018-12-16T21:43:03.776Z,1.30
2018-12-16T21:45:30.933Z,1.30
2018-12-16T21:47:58.158Z,1.40
2018-12-16T21:50:29.929Z,1.30
2018-12-16T21:52:58.222Z,1.30
2018-12-16T21:55:25.430Z,1.30
2018-12-16T21:57:52.833Z,1.30
2018-12-16T22:00:20.232Z,1.30
2018-12-16T22:02:47.643Z,1.30
2018-12-16T22:05:17.205Z,1.30
2018-12-16T22:07:45.442Z,1.30
2018-12-16T22:10:16.071Z,1.30
2018-12-16T22:12:43.254Z,1.30
2018-12-16T22:15:14.042Z,1.40
2018-12-16T22:17:41.193Z,1.30
2018-12-16T22:20:08.575Z,1.40
2018-12-16T22:22:35.772Z,1.30
2018-12-16T22:25:03.219Z,1.30
2018-12-16T22:27:30.730Z,1.30
2018-12-16T22:29:58.962Z,1.30
2018-12-16T22:32:26.153Z,1.20
2018-12-16T22:34:53.490Z,1.30
2018-12-16T22:37:20.769Z,1.30
2018-12-16T22:39:49.056Z,1.30
2018-12-16T22:42:16.249Z,1.30
2018-12-16T22:44:43.512Z,1.30
2018-12-16T22:47:10.704Z,1.30
2018-12-16T22:49:38.961Z,1.30
2018-12-16T22:52:06.181Z,1.20
2018-12-16T22:54:33.431Z,1.20
2018-12-16T22:57:00.625Z,1.20
2018-12-16T22:59:27.972Z,1.20
2018-12-16T23:01:55.314Z,1.20
2018-12-16T23:04:22.507Z,1.10
2018-12-16T23:06:49.789Z,1.20
2018-12-16T23:09:16.977Z,1.20
2018-12-16T23:11:46.233Z,1.20
2018-12-16T23:14:13.447Z,1.10
2018-12-16T23:16:41.663Z,1.20
2018-12-16T23:19:08.873Z,1.20
2018-12-16T23:21:36.182Z,1.20
2018-12-16T23:24:03.394Z,1.20
2018-12-16T23:26:30.734Z,1.20
2018-12-16T23:28:57.934Z,1.20
2018-12-16T23:31:25.212Z,1.20
2018-12-16T23:33:52.430Z,1.20
2018-12-16T23:36:19.684Z,1.20
2018-12-16T23:38:46.876Z,1.20
2018-12-16T23:41:15.130Z,1.20
2018-12-16T23:43:42.343Z,1.20
2018-12-16T23:46:09.599Z,1.20
2018-12-16T23:48:36.818Z,1.20
2018-12-16T23:51:05.029Z,1.20
2018-12-16T23:53:32.239Z,1.20
2018-12-16T23:55:59.539Z,1.20
2018-12-16T23:58:26.705Z,1.20
